Huvudsida
METAR-TAF:

METAR-TAF

Flygplatser :

Kunming Changshui International Airport

Kunming, Kina

latitud: 25-01N, longitud: 102-41E, höjd: 1892 m

Aktuellt väderrapport

Denna rapport gjordes för 46 minuter sedan, klockan 11:00 UTC
Vind 14 kt från syd/sydväst
Temperatur 20°C
Fuktighet 68%
Tryck 1016 hPa
Sikt 10 km eller mer
Få moln på en höjd av 2600 ft
Brutna moln på en höjd av 4000 ft

METAR: ZPPP 251100Z 21007MPS 9999 FEW026 BKN040 20/14 Q1016 NOSIG

Tid: 19:46 (11:46 UTC)

Väderprognos

Denna rapport gjordes för 4 timmar och 38 minuter sedan, klockan 07:08 UTC
Prognos gäller från 25 kl. 12 UTC till 26 kl. 12 UTC
Vind 12 kt från sydväst
Sikt 10 km eller mer
Spridda moln på en höjd av 2000 ft
Brutna moln på en höjd av 4000 ft

TAF: ZPPP 250708Z 2512/2612 22006MPS 9999 SCT020 BKN040 TX22/2608Z TN14/2523Z

Aktuella väderrapporter och prognoser från 4000 flygplatser (METAR- och TAF-rapporter).

De tillgängliga stationerna syns som gula och röda prickar på kartan.

För musen över prickarna för att se namnen på stationerna.

Klicka sedan för att få väderrapporter och prognoser.

För att ändra kartan: Klicka på de gröna knapparna med ett svart kors på för att zooma in; den gröna knappen med ett streck på för att zooma ut; eller på de gröna pilarna för angränsande kartor.


METAR-TAF: